sensor_id;sensor_type;location;lat;lon;timestamp;P1;durP1;ratioP1;P2;durP2;ratioP2
43994;SDS011;51687;52.160;5.298;2022-09-27T00:02:17;3.63;;;0.60;;
43994;SDS011;51687;52.160;5.298;2022-09-27T00:04:44;3.17;;;0.68;;
43994;SDS011;51687;52.160;5.298;2022-09-27T00:07:11;4.43;;;0.60;;
43994;SDS011;51687;52.160;5.298;2022-09-27T00:09:37;1.58;;;0.52;;
43994;SDS011;51687;52.160;5.298;2022-09-27T00:12:04;4.25;;;1.25;;
43994;SDS011;51687;52.160;5.298;2022-09-27T00:14:31;3.83;;;0.52;;
43994;SDS011;51687;52.160;5.298;2022-09-27T00:16:58;4.30;;;0.70;;
43994;SDS011;51687;52.160;5.298;2022-09-27T00:19:24;3.33;;;0.63;;
43994;SDS011;51687;52.160;5.298;2022-09-27T00:21:52;4.72;;;0.50;;
43994;SDS011;51687;52.160;5.298;2022-09-27T00:24:19;4.18;;;0.80;;
43994;SDS011;51687;52.160;5.298;2022-09-27T00:26:47;3.45;;;0.50;;
43994;SDS011;51687;52.160;5.298;2022-09-27T00:29:17;5.47;;;0.98;;
43994;SDS011;51687;52.160;5.298;2022-09-27T00:31:44;4.57;;;0.77;;
43994;SDS011;51687;52.160;5.298;2022-09-27T00:34:21;4.55;;;0.68;;
43994;SDS011;51687;52.160;5.298;2022-09-27T00:36:50;4.80;;;0.47;;
43994;SDS011;51687;52.160;5.298;2022-09-27T00:39:18;1.55;;;0.50;;
43994;SDS011;51687;52.160;5.298;2022-09-27T00:41:45;5.88;;;0.60;;
43994;SDS011;51687;52.160;5.298;2022-09-27T00:49:53;2.53;;;0.60;;
43994;SDS011;51687;52.160;5.298;2022-09-27T00:55:25;5.30;;;0.60;;
43994;SDS011;51687;52.160;5.298;2022-09-27T00:57:55;1.98;;;0.65;;
43994;SDS011;51687;52.160;5.298;2022-09-27T01:00:22;3.25;;;0.65;;
43994;SDS011;51687;52.160;5.298;2022-09-27T01:02:50;4.05;;;0.70;;
43994;SDS011;51687;52.160;5.298;2022-09-27T01:05:20;2.28;;;0.50;;
43994;SDS011;51687;52.160;5.298;2022-09-27T01:07:49;1.05;;;0.43;;
43994;SDS011;51687;52.160;5.298;2022-09-27T01:10:16;2.45;;;0.57;;
43994;SDS011;51687;52.160;5.298;2022-09-27T01:13:05;2.45;;;0.60;;
43994;SDS011;51687;52.160;5.298;2022-09-27T01:16:06;3.63;;;0.93;;
43994;SDS011;51687;52.160;5.298;2022-09-27T01:18:54;1.13;;;0.40;;
43994;SDS011;51687;52.160;5.298;2022-09-27T01:21:29;2.38;;;0.50;;
43994;SDS011;51687;52.160;5.298;2022-09-27T01:35:27;7.32;;;0.73;;
43994;SDS011;51687;52.160;5.298;2022-09-27T01:38:27;4.70;;;0.50;;
43994;SDS011;51687;52.160;5.298;2022-09-27T01:44:10;4.85;;;0.57;;
43994;SDS011;51687;52.160;5.298;2022-09-27T01:46:52;7.35;;;0.70;;
43994;SDS011;51687;52.160;5.298;2022-09-27T01:49:23;3.47;;;0.60;;
43994;SDS011;51687;52.160;5.298;2022-09-27T01:52:19;1.77;;;0.50;;
43994;SDS011;51687;52.160;5.298;2022-09-27T01:54:55;2.95;;;0.85;;
43994;SDS011;51687;52.160;5.298;2022-09-27T01:57:25;4.47;;;0.90;;
43994;SDS011;51687;52.160;5.298;2022-09-27T02:00:06;1.05;;;0.60;;
43994;SDS011;51687;52.160;5.298;2022-09-27T02:02:37;2.90;;;1.00;;
43994;SDS011;51687;52.160;5.298;2022-09-27T02:05:07;6.50;;;0.80;;
43994;SDS011;51687;52.160;5.298;2022-09-27T02:07:47;2.05;;;0.70;;
43994;SDS011;51687;52.160;5.298;2022-09-27T02:10:26;4.53;;;0.70;;
43994;SDS011;51687;52.160;5.298;2022-09-27T02:13:04;7.03;;;0.85;;
43994;SDS011;51687;52.160;5.298;2022-09-27T02:15:56;2.38;;;0.68;;
43994;SDS011;51687;52.160;5.298;2022-09-27T02:21:17;2.83;;;0.77;;
43994;SDS011;51687;52.160;5.298;2022-09-27T02:23:52;6.35;;;1.02;;
43994;SDS011;51687;52.160;5.298;2022-09-27T02:26:23;2.22;;;0.57;;
43994;SDS011;51687;52.160;5.298;2022-09-27T02:28:56;2.97;;;0.57;;
43994;SDS011;51687;52.160;5.298;2022-09-27T02:31:38;4.38;;;1.13;;
43994;SDS011;51687;52.160;5.298;2022-09-27T02:34:23;5.50;;;1.10;;
43994;SDS011;51687;52.160;5.298;2022-09-27T02:36:54;6.13;;;0.88;;
43994;SDS011;51687;52.160;5.298;2022-09-27T02:39:21;2.15;;;0.70;;
43994;SDS011;51687;52.160;5.298;2022-09-27T02:41:49;2.78;;;0.88;;
43994;SDS011;51687;52.160;5.298;2022-09-27T02:44:15;6.32;;;0.90;;
43994;SDS011;51687;52.160;5.298;2022-09-27T02:49:34;3.70;;;0.90;;
43994;SDS011;51687;52.160;5.298;2022-09-27T02:52:21;6.88;;;1.10;;
43994;SDS011;51687;52.160;5.298;2022-09-27T03:04:09;6.72;;;0.85;;
43994;SDS011;51687;52.160;5.298;2022-09-27T03:06:44;5.57;;;0.95;;
43994;SDS011;51687;52.160;5.298;2022-09-27T03:09:16;5.50;;;1.20;;
43994;SDS011;51687;52.160;5.298;2022-09-27T03:11:47;8.90;;;1.55;;
43994;SDS011;51687;52.160;5.298;2022-09-27T03:14:15;10.57;;;1.10;;
43994;SDS011;51687;52.160;5.298;2022-09-27T03:16:42;8.95;;;1.60;;
43994;SDS011;51687;52.160;5.298;2022-09-27T03:19:09;8.23;;;1.17;;
43994;SDS011;51687;52.160;5.298;2022-09-27T03:21:36;5.50;;;1.08;;
43994;SDS011;51687;52.160;5.298;2022-09-27T03:24:03;3.78;;;1.00;;
43994;SDS011;51687;52.160;5.298;2022-09-27T03:26:29;2.63;;;0.90;;
43994;SDS011;51687;52.160;5.298;2022-09-27T03:28:56;7.75;;;1.05;;
43994;SDS011;51687;52.160;5.298;2022-09-27T03:31:23;8.27;;;1.30;;
43994;SDS011;51687;52.160;5.298;2022-09-27T03:33:50;5.18;;;1.20;;
43994;SDS011;51687;52.160;5.298;2022-09-27T03:36:16;13.73;;;1.08;;
43994;SDS011;51687;52.160;5.298;2022-09-27T03:38:43;4.35;;;1.00;;
43994;SDS011;51687;52.160;5.298;2022-09-27T03:41:10;9.80;;;1.20;;
43994;SDS011;51687;52.160;5.298;2022-09-27T03:43:37;9.35;;;1.45;;
43994;SDS011;51687;52.160;5.298;2022-09-27T03:46:04;10.80;;;1.20;;
43994;SDS011;51687;52.160;5.298;2022-09-27T03:48:31;5.25;;;1.17;;
43994;SDS011;51687;52.160;5.298;2022-09-27T03:50:58;5.90;;;1.10;;
43994;SDS011;51687;52.160;5.298;2022-09-27T03:53:25;10.82;;;1.65;;
43994;SDS011;51687;52.160;5.298;2022-09-27T03:55:51;6.28;;;0.90;;
43994;SDS011;51687;52.160;5.298;2022-09-27T03:58:18;3.80;;;0.90;;
43994;SDS011;51687;52.160;5.298;2022-09-27T04:00:45;8.18;;;1.20;;
43994;SDS011;51687;52.160;5.298;2022-09-27T04:03:12;7.75;;;1.05;;
43994;SDS011;51687;52.160;5.298;2022-09-27T04:05:39;10.93;;;1.00;;
43994;SDS011;51687;52.160;5.298;2022-09-27T04:08:06;7.10;;;1.30;;
43994;SDS011;51687;52.160;5.298;2022-09-27T04:10:33;7.30;;;1.30;;
43994;SDS011;51687;52.160;5.298;2022-09-27T04:13:01;8.07;;;1.38;;
43994;SDS011;51687;52.160;5.298;2022-09-27T04:15:28;8.35;;;1.10;;
43994;SDS011;51687;52.160;5.298;2022-09-27T04:17:55;5.03;;;1.20;;
43994;SDS011;51687;52.160;5.298;2022-09-27T04:20:22;8.18;;;1.40;;
43994;SDS011;51687;52.160;5.298;2022-09-27T04:22:49;9.18;;;1.55;;
43994;SDS011;51687;52.160;5.298;2022-09-27T04:25:17;5.05;;;1.00;;
43994;SDS011;51687;52.160;5.298;2022-09-27T04:27:45;7.68;;;1.13;;
43994;SDS011;51687;52.160;5.298;2022-09-27T04:30:12;6.30;;;1.30;;
43994;SDS011;51687;52.160;5.298;2022-09-27T04:32:43;6.57;;;1.20;;
43994;SDS011;51687;52.160;5.298;2022-09-27T04:35:10;4.68;;;1.30;;
43994;SDS011;51687;52.160;5.298;2022-09-27T04:37:57;5.85;;;0.77;;
43994;SDS011;51687;52.160;5.298;2022-09-27T04:40:24;6.50;;;1.38;;
43994;SDS011;51687;52.160;5.298;2022-09-27T04:42:51;5.55;;;1.23;;
43994;SDS011;51687;52.160;5.298;2022-09-27T04:45:18;6.05;;;1.13;;
43994;SDS011;51687;52.160;5.298;2022-09-27T04:47:46;7.10;;;1.58;;
43994;SDS011;51687;52.160;5.298;2022-09-27T04:50:14;5.50;;;1.42;;
43994;SDS011;51687;52.160;5.298;2022-09-27T04:52:42;5.38;;;1.05;;
43994;SDS011;51687;52.160;5.298;2022-09-27T04:55:09;9.07;;;1.38;;
43994;SDS011;51687;52.160;5.298;2022-09-27T04:57:36;4.97;;;1.15;;
43994;SDS011;51687;52.160;5.298;2022-09-27T05:00:03;5.55;;;1.02;;
43994;SDS011;51687;52.160;5.298;2022-09-27T05:02:30;7.45;;;1.45;;
43994;SDS011;51687;52.160;5.298;2022-09-27T05:04:57;6.50;;;1.40;;
43994;SDS011;51687;52.160;5.298;2022-09-27T05:07:25;9.00;;;2.28;;
43994;SDS011;51687;52.160;5.298;2022-09-27T05:09:52;3.43;;;1.17;;
43994;SDS011;51687;52.160;5.298;2022-09-27T05:12:20;4.88;;;1.15;;
43994;SDS011;51687;52.160;5.298;2022-09-27T05:14:47;7.80;;;1.40;;
43994;SDS011;51687;52.160;5.298;2022-09-27T05:17:14;8.80;;;1.55;;
43994;SDS011;51687;52.160;5.298;2022-09-27T05:19:41;5.05;;;1.38;;
43994;SDS011;51687;52.160;5.298;2022-09-27T05:22:08;5.38;;;1.30;;
43994;SDS011;51687;52.160;5.298;2022-09-27T05:24:36;4.07;;;1.20;;
43994;SDS011;51687;52.160;5.298;2022-09-27T05:27:04;7.07;;;1.20;;
43994;SDS011;51687;52.160;5.298;2022-09-27T05:29:33;8.32;;;1.25;;
43994;SDS011;51687;52.160;5.298;2022-09-27T05:32:00;5.18;;;0.95;;
43994;SDS011;51687;52.160;5.298;2022-09-27T05:34:28;3.60;;;1.00;;
43994;SDS011;51687;52.160;5.298;2022-09-27T05:36:57;4.35;;;0.95;;
43994;SDS011;51687;52.160;5.298;2022-09-27T05:39:24;6.03;;;1.02;;
43994;SDS011;51687;52.160;5.298;2022-09-27T05:41:53;8.10;;;1.55;;
43994;SDS011;51687;52.160;5.298;2022-09-27T05:44:21;6.82;;;1.17;;
43994;SDS011;51687;52.160;5.298;2022-09-27T05:46:48;6.70;;;1.20;;
43994;SDS011;51687;52.160;5.298;2022-09-27T05:49:14;8.35;;;1.17;;
43994;SDS011;51687;52.160;5.298;2022-09-27T05:51:41;6.57;;;1.02;;
43994;SDS011;51687;52.160;5.298;2022-09-27T05:54:08;3.70;;;0.82;;
43994;SDS011;51687;52.160;5.298;2022-09-27T05:56:34;10.52;;;1.10;;
43994;SDS011;51687;52.160;5.298;2022-09-27T05:59:01;6.22;;;1.23;;
43994;SDS011;51687;52.160;5.298;2022-09-27T06:01:29;4.55;;;1.10;;
43994;SDS011;51687;52.160;5.298;2022-09-27T06:03:55;9.43;;;1.23;;
43994;SDS011;51687;52.160;5.298;2022-09-27T06:06:22;9.40;;;1.13;;
43994;SDS011;51687;52.160;5.298;2022-09-27T06:08:49;3.95;;;1.00;;
43994;SDS011;51687;52.160;5.298;2022-09-27T06:11:16;6.18;;;1.08;;
43994;SDS011;51687;52.160;5.298;2022-09-27T06:13:42;6.40;;;0.80;;
43994;SDS011;51687;52.160;5.298;2022-09-27T06:16:10;4.95;;;1.00;;
43994;SDS011;51687;52.160;5.298;2022-09-27T06:18:37;3.70;;;1.40;;
43994;SDS011;51687;52.160;5.298;2022-09-27T06:21:04;4.15;;;1.20;;
43994;SDS011;51687;52.160;5.298;2022-09-27T06:23:32;5.28;;;1.05;;
43994;SDS011;51687;52.160;5.298;2022-09-27T06:26:02;2.83;;;1.40;;
43994;SDS011;51687;52.160;5.298;2022-09-27T06:28:31;8.23;;;1.40;;
43994;SDS011;51687;52.160;5.298;2022-09-27T06:31:00;4.22;;;1.55;;
43994;SDS011;51687;52.160;5.298;2022-09-27T06:33:27;4.43;;;1.40;;
43994;SDS011;51687;52.160;5.298;2022-09-27T06:35:53;5.82;;;1.33;;
43994;SDS011;51687;52.160;5.298;2022-09-27T06:38:21;4.80;;;1.35;;
43994;SDS011;51687;52.160;5.298;2022-09-27T06:40:49;7.93;;;1.20;;
43994;SDS011;51687;52.160;5.298;2022-09-27T06:43:16;6.15;;;1.38;;
43994;SDS011;51687;52.160;5.298;2022-09-27T06:45:47;3.30;;;1.08;;
43994;SDS011;51687;52.160;5.298;2022-09-27T06:48:15;6.10;;;1.00;;
43994;SDS011;51687;52.160;5.298;2022-09-27T06:50:43;6.32;;;1.67;;
43994;SDS011;51687;52.160;5.298;2022-09-27T06:53:12;10.20;;;1.40;;
43994;SDS011;51687;52.160;5.298;2022-09-27T06:55:39;8.15;;;1.60;;
43994;SDS011;51687;52.160;5.298;2022-09-27T06:58:09;6.00;;;1.27;;
43994;SDS011;51687;52.160;5.298;2022-09-27T07:00:55;7.13;;;1.23;;
43994;SDS011;51687;52.160;5.298;2022-09-27T07:03:24;5.80;;;1.20;;
43994;SDS011;51687;52.160;5.298;2022-09-27T07:06:02;3.50;;;1.20;;
43994;SDS011;51687;52.160;5.298;2022-09-27T07:08:30;9.00;;;1.17;;
43994;SDS011;51687;52.160;5.298;2022-09-27T07:11:03;6.15;;;1.20;;
43994;SDS011;51687;52.160;5.298;2022-09-27T07:13:31;4.85;;;1.20;;
43994;SDS011;51687;52.160;5.298;2022-09-27T07:16:00;6.15;;;1.20;;
43994;SDS011;51687;52.160;5.298;2022-09-27T07:18:27;7.60;;;1.33;;
43994;SDS011;51687;52.160;5.298;2022-09-27T07:20:54;5.30;;;1.00;;
43994;SDS011;51687;52.160;5.298;2022-09-27T07:23:27;6.65;;;1.77;;
43994;SDS011;51687;52.160;5.298;2022-09-27T07:25:54;4.15;;;1.15;;
43994;SDS011;51687;52.160;5.298;2022-09-27T07:28:21;4.60;;;1.10;;
43994;SDS011;51687;52.160;5.298;2022-09-27T07:30:48;4.28;;;1.15;;
43994;SDS011;51687;52.160;5.298;2022-09-27T07:33:19;3.85;;;1.00;;
43994;SDS011;51687;52.160;5.298;2022-09-27T07:35:46;8.98;;;1.30;;
43994;SDS011;51687;52.160;5.298;2022-09-27T07:38:13;3.80;;;0.82;;
43994;SDS011;51687;52.160;5.298;2022-09-27T07:40:41;6.30;;;1.17;;
43994;SDS011;51687;52.160;5.298;2022-09-27T07:43:08;3.45;;;0.77;;
43994;SDS011;51687;52.160;5.298;2022-09-27T07:45:35;6.95;;;1.20;;
43994;SDS011;51687;52.160;5.298;2022-09-27T07:48:09;7.28;;;1.13;;
43994;SDS011;51687;52.160;5.298;2022-09-27T07:50:40;4.43;;;0.90;;
43994;SDS011;51687;52.160;5.298;2022-09-27T07:53:07;3.22;;;1.20;;
43994;SDS011;51687;52.160;5.298;2022-09-27T07:55:38;7.15;;;1.08;;
43994;SDS011;51687;52.160;5.298;2022-09-27T07:58:06;7.43;;;1.00;;
43994;SDS011;51687;52.160;5.298;2022-09-27T08:00:35;9.75;;;1.55;;
43994;SDS011;51687;52.160;5.298;2022-09-27T08:03:05;10.83;;;1.00;;
43994;SDS011;51687;52.160;5.298;2022-09-27T08:05:34;6.55;;;1.45;;
43994;SDS011;51687;52.160;5.298;2022-09-27T08:08:01;7.65;;;1.73;;
43994;SDS011;51687;52.160;5.298;2022-09-27T08:10:30;6.22;;;1.20;;
43994;SDS011;51687;52.160;5.298;2022-09-27T08:12:58;8.25;;;1.52;;
43994;SDS011;51687;52.160;5.298;2022-09-27T08:15:29;8.05;;;1.50;;
43994;SDS011;51687;52.160;5.298;2022-09-27T08:17:57;9.85;;;2.08;;
43994;SDS011;51687;52.160;5.298;2022-09-27T08:20:24;6.07;;;1.58;;
43994;SDS011;51687;52.160;5.298;2022-09-27T08:22:50;7.72;;;1.92;;
43994;SDS011;51687;52.160;5.298;2022-09-27T08:25:17;6.43;;;1.30;;
43994;SDS011;51687;52.160;5.298;2022-09-27T08:27:53;7.85;;;1.40;;
43994;SDS011;51687;52.160;5.298;2022-09-27T08:30:21;7.38;;;1.30;;
43994;SDS011;51687;52.160;5.298;2022-09-27T08:32:47;6.75;;;1.50;;
43994;SDS011;51687;52.160;5.298;2022-09-27T08:35:14;7.10;;;1.55;;
43994;SDS011;51687;52.160;5.298;2022-09-27T08:37:41;8.32;;;1.33;;
43994;SDS011;51687;52.160;5.298;2022-09-27T08:40:09;7.22;;;1.60;;
43994;SDS011;51687;52.160;5.298;2022-09-27T08:42:46;7.80;;;1.30;;
43994;SDS011;51687;52.160;5.298;2022-09-27T08:45:29;5.20;;;1.25;;
43994;SDS011;51687;52.160;5.298;2022-09-27T08:48:00;5.75;;;1.42;;
43994;SDS011;51687;52.160;5.298;2022-09-27T08:55:43;2.33;;;1.00;;
43994;SDS011;51687;52.160;5.298;2022-09-27T09:00:54;3.85;;;1.27;;
43994;SDS011;51687;52.160;5.298;2022-09-27T09:03:27;3.33;;;0.93;;
43994;SDS011;51687;52.160;5.298;2022-09-27T09:11:29;5.47;;;0.90;;
43994;SDS011;51687;52.160;5.298;2022-09-27T09:14:32;4.18;;;1.00;;
43994;SDS011;51687;52.160;5.298;2022-09-27T09:22:53;6.95;;;0.93;;
43994;SDS011;51687;52.160;5.298;2022-09-27T09:25:58;5.40;;;0.90;;
43994;SDS011;51687;52.160;5.298;2022-09-27T09:31:19;3.20;;;0.90;;
43994;SDS011;51687;52.160;5.298;2022-09-27T09:36:34;3.72;;;0.85;;
43994;SDS011;51687;52.160;5.298;2022-09-27T09:42:10;5.82;;;0.77;;
43994;SDS011;51687;52.160;5.298;2022-09-27T09:47:36;2.72;;;0.63;;
43994;SDS011;51687;52.160;5.298;2022-09-27T09:50:12;4.60;;;1.00;;
43994;SDS011;51687;52.160;5.298;2022-09-27T09:52:49;4.45;;;0.60;;
43994;SDS011;51687;52.160;5.298;2022-09-27T09:55:23;3.17;;;0.70;;
43994;SDS011;51687;52.160;5.298;2022-09-27T09:58:07;2.85;;;0.55;;
43994;SDS011;51687;52.160;5.298;2022-09-27T10:00:45;1.98;;;0.80;;
43994;SDS011;51687;52.160;5.298;2022-09-27T10:03:15;2.72;;;0.50;;
43994;SDS011;51687;52.160;5.298;2022-09-27T10:05:43;2.35;;;0.73;;
43994;SDS011;51687;52.160;5.298;2022-09-27T10:08:16;1.60;;;0.60;;
43994;SDS011;51687;52.160;5.298;2022-09-27T10:10:46;3.45;;;0.80;;
43994;SDS011;51687;52.160;5.298;2022-09-27T10:13:17;1.55;;;0.68;;
43994;SDS011;51687;52.160;5.298;2022-09-27T10:18:34;2.07;;;0.50;;
43994;SDS011;51687;52.160;5.298;2022-09-27T10:21:05;2.78;;;0.75;;
43994;SDS011;51687;52.160;5.298;2022-09-27T10:23:36;3.55;;;0.63;;
43994;SDS011;51687;52.160;5.298;2022-09-27T10:26:39;1.13;;;0.50;;
43994;SDS011;51687;52.160;5.298;2022-09-27T10:32:03;3.10;;;0.70;;
43994;SDS011;51687;52.160;5.298;2022-09-27T10:34:43;9.63;;;0.80;;
43994;SDS011;51687;52.160;5.298;2022-09-27T10:39:45;5.63;;;0.70;;
43994;SDS011;51687;52.160;5.298;2022-09-27T10:42:34;5.47;;;0.77;;
43994;SDS011;51687;52.160;5.298;2022-09-27T10:45:23;3.50;;;0.65;;
43994;SDS011;51687;52.160;5.298;2022-09-27T10:47:53;1.40;;;0.60;;
43994;SDS011;51687;52.160;5.298;2022-09-27T10:50:27;2.60;;;0.60;;
43994;SDS011;51687;52.160;5.298;2022-09-27T10:53:18;4.07;;;0.70;;
43994;SDS011;51687;52.160;5.298;2022-09-27T10:55:47;1.77;;;0.70;;
43994;SDS011;51687;52.160;5.298;2022-09-27T10:58:30;4.25;;;0.90;;
43994;SDS011;51687;52.160;5.298;2022-09-27T11:01:03;1.83;;;1.02;;
43994;SDS011;51687;52.160;5.298;2022-09-27T11:03:36;3.95;;;0.68;;
43994;SDS011;51687;52.160;5.298;2022-09-27T11:06:25;3.45;;;0.75;;
43994;SDS011;51687;52.160;5.298;2022-09-27T11:08:55;3.72;;;0.70;;
43994;SDS011;51687;52.160;5.298;2022-09-27T11:11:37;2.53;;;0.70;;
43994;SDS011;51687;52.160;5.298;2022-09-27T11:14:04;2.95;;;1.02;;
43994;SDS011;51687;52.160;5.298;2022-09-27T11:24:38;3.40;;;0.75;;
43994;SDS011;51687;52.160;5.298;2022-09-27T11:38:30;4.68;;;0.90;;
43994;SDS011;51687;52.160;5.298;2022-09-27T11:46:38;3.00;;;0.88;;
43994;SDS011;51687;52.160;5.298;2022-09-27T11:55:13;3.85;;;0.70;;
43994;SDS011;51687;52.160;5.298;2022-09-27T12:00:48;2.20;;;0.63;;
43994;SDS011;51687;52.160;5.298;2022-09-27T12:09:21;2.50;;;0.50;;
43994;SDS011;51687;52.160;5.298;2022-09-27T12:11:52;5.22;;;0.70;;
43994;SDS011;51687;52.160;5.298;2022-09-27T12:14:34;1.60;;;0.57;;
43994;SDS011;51687;52.160;5.298;2022-09-27T12:17:06;1.13;;;0.50;;
43994;SDS011;51687;52.160;5.298;2022-09-27T12:19:42;2.35;;;0.60;;
43994;SDS011;51687;52.160;5.298;2022-09-27T12:22:20;3.75;;;0.80;;
43994;SDS011;51687;52.160;5.298;2022-09-27T12:25:19;3.25;;;0.60;;
43994;SDS011;51687;52.160;5.298;2022-09-27T12:27:48;2.38;;;0.60;;
43994;SDS011;51687;52.160;5.298;2022-09-27T12:30:26;1.63;;;0.70;;
43994;SDS011;51687;52.160;5.298;2022-09-27T12:35:48;2.45;;;0.95;;
43994;SDS011;51687;52.160;5.298;2022-09-27T12:38:19;3.22;;;0.65;;
43994;SDS011;51687;52.160;5.298;2022-09-27T12:40:51;2.65;;;0.60;;
43994;SDS011;51687;52.160;5.298;2022-09-27T12:43:21;2.38;;;0.63;;
43994;SDS011;51687;52.160;5.298;2022-09-27T12:50:52;3.83;;;0.98;;
43994;SDS011;51687;52.160;5.298;2022-09-27T12:53:28;2.67;;;0.88;;
43994;SDS011;51687;52.160;5.298;2022-09-27T12:56:13;3.72;;;0.90;;
43994;SDS011;51687;52.160;5.298;2022-09-27T12:59:15;1.75;;;0.68;;
43994;SDS011;51687;52.160;5.298;2022-09-27T13:01:51;3.72;;;0.77;;
43994;SDS011;51687;52.160;5.298;2022-09-27T13:13:13;2.05;;;0.90;;
43994;SDS011;51687;52.160;5.298;2022-09-27T13:15:45;6.72;;;0.80;;
43994;SDS011;51687;52.160;5.298;2022-09-27T13:21:02;3.42;;;0.80;;
43994;SDS011;51687;52.160;5.298;2022-09-27T13:34:37;3.60;;;1.00;;
43994;SDS011;51687;52.160;5.298;2022-09-27T13:45:37;3.22;;;0.85;;
43994;SDS011;51687;52.160;5.298;2022-09-27T13:48:16;3.53;;;1.02;;
43994;SDS011;51687;52.160;5.298;2022-09-27T13:50:50;2.38;;;0.85;;
43994;SDS011;51687;52.160;5.298;2022-09-27T13:53:27;3.90;;;1.20;;
43994;SDS011;51687;52.160;5.298;2022-09-27T13:56:03;2.63;;;0.75;;
43994;SDS011;51687;52.160;5.298;2022-09-27T14:01:18;1.92;;;0.80;;
43994;SDS011;51687;52.160;5.298;2022-09-27T14:03:54;5.53;;;1.02;;
43994;SDS011;51687;52.160;5.298;2022-09-27T14:06:28;3.05;;;1.00;;
43994;SDS011;51687;52.160;5.298;2022-09-27T14:08:59;2.90;;;1.15;;
43994;SDS011;51687;52.160;5.298;2022-09-27T14:11:37;1.17;;;0.55;;
43994;SDS011;51687;52.160;5.298;2022-09-27T14:14:12;2.50;;;0.68;;
43994;SDS011;51687;52.160;5.298;2022-09-27T14:16:43;4.15;;;0.68;;
43994;SDS011;51687;52.160;5.298;2022-09-27T14:19:20;2.15;;;0.63;;
43994;SDS011;51687;52.160;5.298;2022-09-27T14:21:48;3.30;;;0.98;;
43994;SDS011;51687;52.160;5.298;2022-09-27T14:26:49;3.13;;;0.90;;
43994;SDS011;51687;52.160;5.298;2022-09-27T14:29:29;7.78;;;0.95;;
43994;SDS011;51687;52.160;5.298;2022-09-27T14:32:03;4.78;;;0.90;;
43994;SDS011;51687;52.160;5.298;2022-09-27T14:34:30;3.45;;;1.05;;
43994;SDS011;51687;52.160;5.298;2022-09-27T14:36:58;5.85;;;0.80;;
43994;SDS011;51687;52.160;5.298;2022-09-27T14:39:43;5.50;;;2.25;;
43994;SDS011;51687;52.160;5.298;2022-09-27T14:42:18;4.32;;;0.82;;
43994;SDS011;51687;52.160;5.298;2022-09-27T14:44:47;4.72;;;1.90;;
43994;SDS011;51687;52.160;5.298;2022-09-27T14:47:19;7.43;;;2.10;;
43994;SDS011;51687;52.160;5.298;2022-09-27T14:49:49;2.88;;;1.33;;
43994;SDS011;51687;52.160;5.298;2022-09-27T14:52:21;2.15;;;1.00;;
43994;SDS011;51687;52.160;5.298;2022-09-27T14:55:07;3.70;;;1.70;;
43994;SDS011;51687;52.160;5.298;2022-09-27T14:57:39;3.30;;;1.75;;
43994;SDS011;51687;52.160;5.298;2022-09-27T15:02:51;6.07;;;3.47;;
43994;SDS011;51687;52.160;5.298;2022-09-27T15:05:24;9.38;;;4.70;;
43994;SDS011;51687;52.160;5.298;2022-09-27T15:07:53;6.75;;;4.38;;
43994;SDS011;51687;52.160;5.298;2022-09-27T15:10:24;9.32;;;7.15;;
43994;SDS011;51687;52.160;5.298;2022-09-27T15:12:53;5.55;;;4.38;;
43994;SDS011;51687;52.160;5.298;2022-09-27T15:15:25;3.28;;;1.33;;
43994;SDS011;51687;52.160;5.298;2022-09-27T15:17:58;2.03;;;1.10;;
43994;SDS011;51687;52.160;5.298;2022-09-27T15:23:01;15.30;;;13.63;;
43994;SDS011;51687;52.160;5.298;2022-09-27T15:26:17;14.13;;;13.02;;
43994;SDS011;51687;52.160;5.298;2022-09-27T15:28:34;7.40;;;6.70;;
43994;SDS011;51687;52.160;5.298;2022-09-27T15:31:03;5.30;;;4.80;;
43994;SDS011;51687;52.160;5.298;2022-09-27T15:33:32;3.60;;;1.80;;
43994;SDS011;51687;52.160;5.298;2022-09-27T15:36:02;1.77;;;1.00;;
43994;SDS011;51687;52.160;5.298;2022-09-27T15:38:34;2.70;;;1.30;;
43994;SDS011;51687;52.160;5.298;2022-09-27T15:41:15;3.72;;;3.22;;
43994;SDS011;51687;52.160;5.298;2022-09-27T15:43:47;2.72;;;1.90;;
43994;SDS011;51687;52.160;5.298;2022-09-27T15:51:53;6.40;;;3.92;;
43994;SDS011;51687;52.160;5.298;2022-09-27T15:54:21;6.82;;;3.65;;
43994;SDS011;51687;52.160;5.298;2022-09-27T15:56:50;3.28;;;2.22;;
43994;SDS011;51687;52.160;5.298;2022-09-27T15:59:22;5.20;;;4.18;;
43994;SDS011;51687;52.160;5.298;2022-09-27T16:01:55;4.63;;;2.13;;
43994;SDS011;51687;52.160;5.298;2022-09-27T16:04:24;2.90;;;2.35;;
43994;SDS011;51687;52.160;5.298;2022-09-27T16:06:52;4.35;;;1.90;;
43994;SDS011;51687;52.160;5.298;2022-09-27T16:09:19;4.22;;;3.83;;
43994;SDS011;51687;52.160;5.298;2022-09-27T16:11:47;4.07;;;1.77;;
43994;SDS011;51687;52.160;5.298;2022-09-27T16:14:15;6.57;;;1.35;;
43994;SDS011;51687;52.160;5.298;2022-09-27T16:16:48;5.38;;;1.35;;
43994;SDS011;51687;52.160;5.298;2022-09-27T16:19:19;3.38;;;0.80;;
43994;SDS011;51687;52.160;5.298;2022-09-27T16:21:46;5.15;;;1.20;;
43994;SDS011;51687;52.160;5.298;2022-09-27T16:24:14;5.38;;;1.40;;
43994;SDS011;51687;52.160;5.298;2022-09-27T16:26:42;4.55;;;1.80;;
43994;SDS011;51687;52.160;5.298;2022-09-27T16:29:10;3.75;;;1.50;;
43994;SDS011;51687;52.160;5.298;2022-09-27T16:31:38;3.53;;;1.58;;
43994;SDS011;51687;52.160;5.298;2022-09-27T16:34:07;3.20;;;1.52;;
43994;SDS011;51687;52.160;5.298;2022-09-27T16:39:05;6.78;;;1.50;;
43994;SDS011;51687;52.160;5.298;2022-09-27T16:41:33;5.25;;;1.60;;
43994;SDS011;51687;52.160;5.298;2022-09-27T16:44:07;3.97;;;1.50;;
43994;SDS011;51687;52.160;5.298;2022-09-27T16:46:39;7.43;;;1.85;;
43994;SDS011;51687;52.160;5.298;2022-09-27T16:49:07;3.97;;;1.60;;
43994;SDS011;51687;52.160;5.298;2022-09-27T16:51:57;3.90;;;1.67;;
43994;SDS011;51687;52.160;5.298;2022-09-27T16:54:27;4.38;;;1.55;;
43994;SDS011;51687;52.160;5.298;2022-09-27T16:56:58;5.53;;;3.00;;
43994;SDS011;51687;52.160;5.298;2022-09-27T16:59:25;8.80;;;2.33;;
43994;SDS011;51687;52.160;5.298;2022-09-27T17:01:52;4.63;;;1.80;;
43994;SDS011;51687;52.160;5.298;2022-09-27T17:04:24;2.95;;;1.80;;
43994;SDS011;51687;52.160;5.298;2022-09-27T17:06:51;6.33;;;1.73;;
43994;SDS011;51687;52.160;5.298;2022-09-27T17:09:19;4.05;;;1.25;;
43994;SDS011;51687;52.160;5.298;2022-09-27T17:11:47;4.28;;;1.52;;
43994;SDS011;51687;52.160;5.298;2022-09-27T17:14:14;5.25;;;1.85;;
43994;SDS011;51687;52.160;5.298;2022-09-27T17:16:42;3.33;;;1.23;;
43994;SDS011;51687;52.160;5.298;2022-09-27T17:19:11;3.53;;;1.50;;
43994;SDS011;51687;52.160;5.298;2022-09-27T17:21:41;3.40;;;1.95;;
43994;SDS011;51687;52.160;5.298;2022-09-27T17:24:08;7.75;;;3.90;;
43994;SDS011;51687;52.160;5.298;2022-09-27T17:26:36;12.38;;;3.40;;
43994;SDS011;51687;52.160;5.298;2022-09-27T17:29:03;8.95;;;3.05;;
43994;SDS011;51687;52.160;5.298;2022-09-27T17:31:29;5.90;;;2.38;;
43994;SDS011;51687;52.160;5.298;2022-09-27T17:33:59;8.32;;;2.17;;
43994;SDS011;51687;52.160;5.298;2022-09-27T17:36:26;9.20;;;2.38;;
43994;SDS011;51687;52.160;5.298;2022-09-27T17:38:56;13.07;;;2.20;;
43994;SDS011;51687;52.160;5.298;2022-09-27T17:41:24;4.45;;;1.85;;
43994;SDS011;51687;52.160;5.298;2022-09-27T17:43:56;4.95;;;1.70;;
43994;SDS011;51687;52.160;5.298;2022-09-27T17:46:25;4.18;;;1.58;;
43994;SDS011;51687;52.160;5.298;2022-09-27T17:49:02;7.13;;;1.73;;
43994;SDS011;51687;52.160;5.298;2022-09-27T17:51:49;5.88;;;2.13;;
43994;SDS011;51687;52.160;5.298;2022-09-27T17:54:18;4.47;;;2.33;;
43994;SDS011;51687;52.160;5.298;2022-09-27T17:56:50;6.70;;;2.40;;
43994;SDS011;51687;52.160;5.298;2022-09-27T17:59:17;5.97;;;1.90;;
43994;SDS011;51687;52.160;5.298;2022-09-27T18:01:44;4.65;;;2.08;;
43994;SDS011;51687;52.160;5.298;2022-09-27T18:04:13;5.63;;;2.90;;
43994;SDS011;51687;52.160;5.298;2022-09-27T18:06:43;9.63;;;2.95;;
43994;SDS011;51687;52.160;5.298;2022-09-27T18:09:13;3.30;;;2.10;;